sensor_id;sensor_type;location;lat;lon;timestamp;temperature;humidity
25248;DHT22;13191;47.472;11.214;2023-11-21T00:00:19;5.60;99.90
25248;DHT22;13191;47.472;11.214;2023-11-21T00:02:45;5.60;99.90
25248;DHT22;13191;47.472;11.214;2023-11-21T00:05:12;5.60;99.90
25248;DHT22;13191;47.472;11.214;2023-11-21T00:07:40;5.60;99.90
25248;DHT22;13191;47.472;11.214;2023-11-21T00:10:06;5.60;99.90
25248;DHT22;13191;47.472;11.214;2023-11-21T00:12:32;5.60;99.90
25248;DHT22;13191;47.472;11.214;2023-11-21T00:14:59;5.60;99.90
25248;DHT22;13191;47.472;11.214;2023-11-21T00:17:24;5.50;99.90
25248;DHT22;13191;47.472;11.214;2023-11-21T00:19:50;5.50;99.90
25248;DHT22;13191;47.472;11.214;2023-11-21T00:22:19;5.50;99.90
25248;DHT22;13191;47.472;11.214;2023-11-21T00:24:45;5.50;99.90
25248;DHT22;13191;47.472;11.214;2023-11-21T00:27:11;5.40;99.90
25248;DHT22;13191;47.472;11.214;2023-11-21T00:29:36;5.40;99.90
25248;DHT22;13191;47.472;11.214;2023-11-21T00:32:04;5.40;99.90
25248;DHT22;13191;47.472;11.214;2023-11-21T00:34:31;5.30;99.90
25248;DHT22;13191;47.472;11.214;2023-11-21T00:36:56;5.30;99.90
25248;DHT22;13191;47.472;11.214;2023-11-21T00:39:22;5.20;99.90
25248;DHT22;13191;47.472;11.214;2023-11-21T00:41:47;5.20;99.90
25248;DHT22;13191;47.472;11.214;2023-11-21T00:44:13;5.20;99.90
25248;DHT22;13191;47.472;11.214;2023-11-21T00:46:39;5.20;99.90
25248;DHT22;13191;47.472;11.214;2023-11-21T00:49:05;5.20;99.90
25248;DHT22;13191;47.472;11.214;2023-11-21T00:51:30;5.10;99.90
25248;DHT22;13191;47.472;11.214;2023-11-21T00:53:56;5.10;99.90
25248;DHT22;13191;47.472;11.214;2023-11-21T00:56:22;5.10;99.90
25248;DHT22;13191;47.472;11.214;2023-11-21T00:58:47;5.10;99.90
25248;DHT22;13191;47.472;11.214;2023-11-21T01:01:16;5.10;99.90
25248;DHT22;13191;47.472;11.214;2023-11-21T01:03:42;5.00;99.90
25248;DHT22;13191;47.472;11.214;2023-11-21T01:06:07;5.00;99.90
25248;DHT22;13191;47.472;11.214;2023-11-21T01:08:34;5.00;99.90
25248;DHT22;13191;47.472;11.214;2023-11-21T01:11:01;4.90;99.90
25248;DHT22;13191;47.472;11.214;2023-11-21T01:13:27;4.90;99.90
25248;DHT22;13191;47.472;11.214;2023-11-21T01:15:53;4.90;99.90
25248;DHT22;13191;47.472;11.214;2023-11-21T01:18:19;4.90;99.90
25248;DHT22;13191;47.472;11.214;2023-11-21T01:20:44;4.90;99.90
25248;DHT22;13191;47.472;11.214;2023-11-21T01:23:14;4.90;99.90
25248;DHT22;13191;47.472;11.214;2023-11-21T01:25:40;4.90;99.90
25248;DHT22;13191;47.472;11.214;2023-11-21T01:28:06;4.90;99.90
25248;DHT22;13191;47.472;11.214;2023-11-21T01:30:32;4.90;99.90
25248;DHT22;13191;47.472;11.214;2023-11-21T01:32:58;4.90;99.90
25248;DHT22;13191;47.472;11.214;2023-11-21T01:35:24;4.80;99.90
25248;DHT22;13191;47.472;11.214;2023-11-21T01:37:50;4.80;99.90
25248;DHT22;13191;47.472;11.214;2023-11-21T01:40:15;4.90;99.90
25248;DHT22;13191;47.472;11.214;2023-11-21T01:42:42;4.80;99.90
25248;DHT22;13191;47.472;11.214;2023-11-21T01:45:09;4.80;99.90
25248;DHT22;13191;47.472;11.214;2023-11-21T01:47:36;4.80;99.90
25248;DHT22;13191;47.472;11.214;2023-11-21T01:50:03;4.70;99.90
25248;DHT22;13191;47.472;11.214;2023-11-21T01:52:31;4.80;99.90
25248;DHT22;13191;47.472;11.214;2023-11-21T01:54:58;4.80;99.90
25248;DHT22;13191;47.472;11.214;2023-11-21T01:57:24;4.80;99.90
25248;DHT22;13191;47.472;11.214;2023-11-21T01:59:51;4.90;99.90
25248;DHT22;13191;47.472;11.214;2023-11-21T02:02:17;4.90;99.90
25248;DHT22;13191;47.472;11.214;2023-11-21T02:04:43;4.90;99.90
25248;DHT22;13191;47.472;11.214;2023-11-21T02:07:08;4.70;99.90
25248;DHT22;13191;47.472;11.214;2023-11-21T02:09:35;4.70;99.90
25248;DHT22;13191;47.472;11.214;2023-11-21T02:12:04;4.80;99.90
25248;DHT22;13191;47.472;11.214;2023-11-21T02:14:30;4.80;99.90
25248;DHT22;13191;47.472;11.214;2023-11-21T02:16:56;4.80;99.90
25248;DHT22;13191;47.472;11.214;2023-11-21T02:19:23;4.80;99.90
25248;DHT22;13191;47.472;11.214;2023-11-21T02:21:51;4.80;99.90
25248;DHT22;13191;47.472;11.214;2023-11-21T02:24:23;4.90;99.90
25248;DHT22;13191;47.472;11.214;2023-11-21T02:26:50;4.90;99.90
25248;DHT22;13191;47.472;11.214;2023-11-21T02:29:19;4.90;99.90
25248;DHT22;13191;47.472;11.214;2023-11-21T02:31:47;4.90;99.90
25248;DHT22;13191;47.472;11.214;2023-11-21T02:34:14;4.90;99.90
25248;DHT22;13191;47.472;11.214;2023-11-21T02:36:40;4.90;99.90
25248;DHT22;13191;47.472;11.214;2023-11-21T02:39:08;4.90;99.90
25248;DHT22;13191;47.472;11.214;2023-11-21T02:41:34;4.90;99.90
25248;DHT22;13191;47.472;11.214;2023-11-21T02:44:00;4.90;99.90
25248;DHT22;13191;47.472;11.214;2023-11-21T02:46:26;4.90;99.90
25248;DHT22;13191;47.472;11.214;2023-11-21T02:48:51;4.90;99.90
25248;DHT22;13191;47.472;11.214;2023-11-21T02:51:19;4.90;99.90
25248;DHT22;13191;47.472;11.214;2023-11-21T02:53:44;4.90;99.90
25248;DHT22;13191;47.472;11.214;2023-11-21T02:56:12;4.90;99.90
25248;DHT22;13191;47.472;11.214;2023-11-21T02:58:37;4.90;99.90
25248;DHT22;13191;47.472;11.214;2023-11-21T03:01:03;4.80;99.90
25248;DHT22;13191;47.472;11.214;2023-11-21T03:03:31;4.90;99.90
25248;DHT22;13191;47.472;11.214;2023-11-21T03:05:56;5.00;99.90
25248;DHT22;13191;47.472;11.214;2023-11-21T03:08:22;4.90;99.90
25248;DHT22;13191;47.472;11.214;2023-11-21T03:10:47;4.90;99.90
25248;DHT22;13191;47.472;11.214;2023-11-21T03:13:13;4.90;99.90
25248;DHT22;13191;47.472;11.214;2023-11-21T03:15:38;4.80;99.90
25248;DHT22;13191;47.472;11.214;2023-11-21T03:18:04;4.90;99.90
25248;DHT22;13191;47.472;11.214;2023-11-21T03:20:30;5.00;99.90
25248;DHT22;13191;47.472;11.214;2023-11-21T03:22:56;5.00;99.90
25248;DHT22;13191;47.472;11.214;2023-11-21T03:25:21;5.00;99.90
25248;DHT22;13191;47.472;11.214;2023-11-21T03:27:49;5.00;99.90
25248;DHT22;13191;47.472;11.214;2023-11-21T03:30:15;5.00;99.90
25248;DHT22;13191;47.472;11.214;2023-11-21T03:32:40;5.00;99.90
25248;DHT22;13191;47.472;11.214;2023-11-21T03:35:06;4.90;99.90
25248;DHT22;13191;47.472;11.214;2023-11-21T03:37:32;4.90;99.90
25248;DHT22;13191;47.472;11.214;2023-11-21T03:39:58;4.90;99.90
25248;DHT22;13191;47.472;11.214;2023-11-21T03:42:23;4.90;99.90
25248;DHT22;13191;47.472;11.214;2023-11-21T03:44:51;5.00;99.90
25248;DHT22;13191;47.472;11.214;2023-11-21T03:47:16;5.00;99.90
25248;DHT22;13191;47.472;11.214;2023-11-21T03:49:42;4.90;99.90
25248;DHT22;13191;47.472;11.214;2023-11-21T03:52:07;5.00;99.90
25248;DHT22;13191;47.472;11.214;2023-11-21T03:54:34;5.00;99.90
25248;DHT22;13191;47.472;11.214;2023-11-21T03:57:02;5.00;99.90
25248;DHT22;13191;47.472;11.214;2023-11-21T03:59:27;5.00;99.90
25248;DHT22;13191;47.472;11.214;2023-11-21T04:01:55;5.00;99.90
25248;DHT22;13191;47.472;11.214;2023-11-21T04:04:22;5.00;99.90
25248;DHT22;13191;47.472;11.214;2023-11-21T04:06:47;5.00;99.90
25248;DHT22;13191;47.472;11.214;2023-11-21T04:09:13;5.00;99.90
25248;DHT22;13191;47.472;11.214;2023-11-21T04:11:39;4.70;99.90
25248;DHT22;13191;47.472;11.214;2023-11-21T04:14:04;4.90;99.90
25248;DHT22;13191;47.472;11.214;2023-11-21T04:16:30;4.90;99.90
25248;DHT22;13191;47.472;11.214;2023-11-21T04:18:55;5.00;99.90
25248;DHT22;13191;47.472;11.214;2023-11-21T04:21:22;5.00;99.90
25248;DHT22;13191;47.472;11.214;2023-11-21T04:23:49;4.90;99.90
25248;DHT22;13191;47.472;11.214;2023-11-21T04:26:15;4.90;99.90
25248;DHT22;13191;47.472;11.214;2023-11-21T04:28:40;4.90;99.90
25248;DHT22;13191;47.472;11.214;2023-11-21T04:31:06;4.90;99.90
25248;DHT22;13191;47.472;11.214;2023-11-21T04:33:32;4.80;99.90
25248;DHT22;13191;47.472;11.214;2023-11-21T04:35:58;4.90;99.90
25248;DHT22;13191;47.472;11.214;2023-11-21T04:38:23;4.90;99.90
25248;DHT22;13191;47.472;11.214;2023-11-21T04:40:49;5.00;99.90
25248;DHT22;13191;47.472;11.214;2023-11-21T04:43:14;5.00;99.90
25248;DHT22;13191;47.472;11.214;2023-11-21T04:45:40;5.00;99.90
25248;DHT22;13191;47.472;11.214;2023-11-21T04:48:07;5.00;99.90
25248;DHT22;13191;47.472;11.214;2023-11-21T04:50:33;5.10;99.90
25248;DHT22;13191;47.472;11.214;2023-11-21T04:52:59;5.10;99.90
25248;DHT22;13191;47.472;11.214;2023-11-21T04:55:25;5.10;99.90
25248;DHT22;13191;47.472;11.214;2023-11-21T04:57:53;5.20;99.90
25248;DHT22;13191;47.472;11.214;2023-11-21T05:00:19;5.20;99.90
25248;DHT22;13191;47.472;11.214;2023-11-21T05:02:45;5.20;99.90
25248;DHT22;13191;47.472;11.214;2023-11-21T05:05:11;5.20;99.90
25248;DHT22;13191;47.472;11.214;2023-11-21T05:07:36;5.30;99.90
25248;DHT22;13191;47.472;11.214;2023-11-21T05:10:04;5.30;99.90
25248;DHT22;13191;47.472;11.214;2023-11-21T05:12:33;5.30;99.90
25248;DHT22;13191;47.472;11.214;2023-11-21T05:15:04;5.40;99.90
25248;DHT22;13191;47.472;11.214;2023-11-21T05:17:33;5.40;99.90
25248;DHT22;13191;47.472;11.214;2023-11-21T05:19:59;5.40;99.90
25248;DHT22;13191;47.472;11.214;2023-11-21T05:22:29;5.40;99.90
25248;DHT22;13191;47.472;11.214;2023-11-21T05:24:55;5.40;99.90
25248;DHT22;13191;47.472;11.214;2023-11-21T05:27:21;5.40;99.90
25248;DHT22;13191;47.472;11.214;2023-11-21T05:29:46;5.50;99.90
25248;DHT22;13191;47.472;11.214;2023-11-21T05:32:12;5.50;99.90
25248;DHT22;13191;47.472;11.214;2023-11-21T05:34:37;5.50;99.90
25248;DHT22;13191;47.472;11.214;2023-11-21T05:37:03;5.50;99.90
25248;DHT22;13191;47.472;11.214;2023-11-21T05:39:30;5.60;99.90
25248;DHT22;13191;47.472;11.214;2023-11-21T05:41:57;5.60;99.90
25248;DHT22;13191;47.472;11.214;2023-11-21T05:44:23;5.50;99.90
25248;DHT22;13191;47.472;11.214;2023-11-21T05:46:49;5.50;99.90
25248;DHT22;13191;47.472;11.214;2023-11-21T05:49:15;5.60;99.90
25248;DHT22;13191;47.472;11.214;2023-11-21T05:51:41;5.60;99.90
25248;DHT22;13191;47.472;11.214;2023-11-21T05:54:07;5.70;99.90
25248;DHT22;13191;47.472;11.214;2023-11-21T05:56:33;5.70;99.90
25248;DHT22;13191;47.472;11.214;2023-11-21T05:58:59;5.80;99.90
25248;DHT22;13191;47.472;11.214;2023-11-21T06:01:25;5.80;99.90
25248;DHT22;13191;47.472;11.214;2023-11-21T06:03:54;5.80;99.90
25248;DHT22;13191;47.472;11.214;2023-11-21T06:06:20;5.80;99.90
25248;DHT22;13191;47.472;11.214;2023-11-21T06:08:48;5.80;99.90
25248;DHT22;13191;47.472;11.214;2023-11-21T06:11:14;5.90;99.90
25248;DHT22;13191;47.472;11.214;2023-11-21T06:13:39;5.80;99.90
25248;DHT22;13191;47.472;11.214;2023-11-21T06:16:05;5.80;99.90
25248;DHT22;13191;47.472;11.214;2023-11-21T06:18:31;5.90;99.90
25248;DHT22;13191;47.472;11.214;2023-11-21T06:20:56;5.90;99.90
25248;DHT22;13191;47.472;11.214;2023-11-21T06:23:22;5.90;99.90
25248;DHT22;13191;47.472;11.214;2023-11-21T06:25:48;5.90;99.90
25248;DHT22;13191;47.472;11.214;2023-11-21T06:28:14;5.80;99.90
25248;DHT22;13191;47.472;11.214;2023-11-21T06:30:43;5.80;99.90
25248;DHT22;13191;47.472;11.214;2023-11-21T06:33:09;5.90;99.90
25248;DHT22;13191;47.472;11.214;2023-11-21T06:35:35;5.80;99.90
25248;DHT22;13191;47.472;11.214;2023-11-21T06:38:01;5.70;99.90
25248;DHT22;13191;47.472;11.214;2023-11-21T06:40:27;5.80;99.90
25248;DHT22;13191;47.472;11.214;2023-11-21T06:42:52;5.80;99.90
25248;DHT22;13191;47.472;11.214;2023-11-21T06:45:18;5.70;99.90
25248;DHT22;13191;47.472;11.214;2023-11-21T06:47:44;5.80;99.90
25248;DHT22;13191;47.472;11.214;2023-11-21T06:50:10;5.90;99.90
25248;DHT22;13191;47.472;11.214;2023-11-21T06:52:35;5.90;99.90
25248;DHT22;13191;47.472;11.214;2023-11-21T06:55:01;5.90;99.90
25248;DHT22;13191;47.472;11.214;2023-11-21T06:57:26;5.90;99.90
25248;DHT22;13191;47.472;11.214;2023-11-21T06:59:52;5.90;99.90
25248;DHT22;13191;47.472;11.214;2023-11-21T07:02:18;5.90;99.90
25248;DHT22;13191;47.472;11.214;2023-11-21T07:04:45;6.00;99.90
25248;DHT22;13191;47.472;11.214;2023-11-21T07:07:11;6.00;99.90
25248;DHT22;13191;47.472;11.214;2023-11-21T07:09:37;6.00;99.90
25248;DHT22;13191;47.472;11.214;2023-11-21T07:12:03;6.00;99.90
25248;DHT22;13191;47.472;11.214;2023-11-21T07:14:29;6.00;99.90
25248;DHT22;13191;47.472;11.214;2023-11-21T07:16:54;6.10;99.90
25248;DHT22;13191;47.472;11.214;2023-11-21T07:19:20;5.90;99.90
25248;DHT22;13191;47.472;11.214;2023-11-21T07:21:47;5.90;99.90
25248;DHT22;13191;47.472;11.214;2023-11-21T07:24:15;5.90;99.90
25248;DHT22;13191;47.472;11.214;2023-11-21T07:26:41;6.00;99.90
25248;DHT22;13191;47.472;11.214;2023-11-21T07:29:07;6.00;99.90
25248;DHT22;13191;47.472;11.214;2023-11-21T07:31:32;6.00;99.90
25248;DHT22;13191;47.472;11.214;2023-11-21T07:34:00;6.00;99.90
25248;DHT22;13191;47.472;11.214;2023-11-21T07:36:26;6.10;99.90
25248;DHT22;13191;47.472;11.214;2023-11-21T07:38:52;6.20;99.90
25248;DHT22;13191;47.472;11.214;2023-11-21T07:41:18;6.20;99.90
25248;DHT22;13191;47.472;11.214;2023-11-21T07:43:47;6.30;99.90
25248;DHT22;13191;47.472;11.214;2023-11-21T07:46:13;6.30;99.90
25248;DHT22;13191;47.472;11.214;2023-11-21T07:48:39;6.40;99.90
25248;DHT22;13191;47.472;11.214;2023-11-21T07:51:06;6.40;99.90
25248;DHT22;13191;47.472;11.214;2023-11-21T07:53:35;6.40;99.90
25248;DHT22;13191;47.472;11.214;2023-11-21T07:56:08;6.40;99.90
25248;DHT22;13191;47.472;11.214;2023-11-21T07:58:34;6.50;99.90
25248;DHT22;13191;47.472;11.214;2023-11-21T08:01:01;6.50;99.90
25248;DHT22;13191;47.472;11.214;2023-11-21T08:03:27;6.60;99.90
25248;DHT22;13191;47.472;11.214;2023-11-21T08:05:53;6.60;99.90
25248;DHT22;13191;47.472;11.214;2023-11-21T08:08:19;6.60;99.90
25248;DHT22;13191;47.472;11.214;2023-11-21T08:10:45;6.70;99.90
25248;DHT22;13191;47.472;11.214;2023-11-21T08:13:14;6.70;99.90
25248;DHT22;13191;47.472;11.214;2023-11-21T08:15:41;6.60;99.90
25248;DHT22;13191;47.472;11.214;2023-11-21T08:18:10;6.70;99.90
25248;DHT22;13191;47.472;11.214;2023-11-21T08:20:36;6.80;99.90
25248;DHT22;13191;47.472;11.214;2023-11-21T08:23:03;6.80;99.90
25248;DHT22;13191;47.472;11.214;2023-11-21T08:25:31;6.90;99.90
25248;DHT22;13191;47.472;11.214;2023-11-21T08:27:57;6.90;99.90
25248;DHT22;13191;47.472;11.214;2023-11-21T08:30:22;6.90;99.90
25248;DHT22;13191;47.472;11.214;2023-11-21T08:32:49;6.90;99.90
25248;DHT22;13191;47.472;11.214;2023-11-21T08:35:16;7.00;99.90
25248;DHT22;13191;47.472;11.214;2023-11-21T08:37:42;7.10;99.90
25248;DHT22;13191;47.472;11.214;2023-11-21T08:40:08;7.20;99.90
25248;DHT22;13191;47.472;11.214;2023-11-21T08:42:41;7.20;99.90
25248;DHT22;13191;47.472;11.214;2023-11-21T08:45:08;7.30;99.90
25248;DHT22;13191;47.472;11.214;2023-11-21T08:47:34;7.30;99.90
25248;DHT22;13191;47.472;11.214;2023-11-21T08:50:02;7.40;99.90
25248;DHT22;13191;47.472;11.214;2023-11-21T08:52:28;7.40;99.90
25248;DHT22;13191;47.472;11.214;2023-11-21T08:54:53;7.40;99.90
25248;DHT22;13191;47.472;11.214;2023-11-21T08:57:22;7.50;99.90
25248;DHT22;13191;47.472;11.214;2023-11-21T08:59:48;7.60;99.90
25248;DHT22;13191;47.472;11.214;2023-11-21T09:02:14;7.60;99.90
25248;DHT22;13191;47.472;11.214;2023-11-21T09:04:39;7.70;99.90
25248;DHT22;13191;47.472;11.214;2023-11-21T09:07:05;7.70;99.90
25248;DHT22;13191;47.472;11.214;2023-11-21T09:09:30;7.70;99.90
25248;DHT22;13191;47.472;11.214;2023-11-21T09:11:56;7.80;99.90
25248;DHT22;13191;47.472;11.214;2023-11-21T09:14:22;7.90;99.90
25248;DHT22;13191;47.472;11.214;2023-11-21T09:16:48;7.90;99.90
25248;DHT22;13191;47.472;11.214;2023-11-21T09:19:14;7.90;99.90
25248;DHT22;13191;47.472;11.214;2023-11-21T09:21:40;8.00;99.90
25248;DHT22;13191;47.472;11.214;2023-11-21T09:24:06;8.00;99.90
25248;DHT22;13191;47.472;11.214;2023-11-21T09:26:34;8.10;99.90
25248;DHT22;13191;47.472;11.214;2023-11-21T09:29:00;8.10;99.90
25248;DHT22;13191;47.472;11.214;2023-11-21T09:31:27;8.20;99.90
25248;DHT22;13191;47.472;11.214;2023-11-21T09:33:53;8.20;99.90
25248;DHT22;13191;47.472;11.214;2023-11-21T09:36:18;8.30;99.90
25248;DHT22;13191;47.472;11.214;2023-11-21T09:38:44;8.30;99.90
25248;DHT22;13191;47.472;11.214;2023-11-21T09:41:20;8.30;99.90
25248;DHT22;13191;47.472;11.214;2023-11-21T09:43:47;8.30;99.90
25248;DHT22;13191;47.472;11.214;2023-11-21T09:46:16;8.40;99.90
25248;DHT22;13191;47.472;11.214;2023-11-21T09:48:50;8.40;99.90
25248;DHT22;13191;47.472;11.214;2023-11-21T09:51:19;8.50;99.90
25248;DHT22;13191;47.472;11.214;2023-11-21T09:53:50;8.50;99.90
25248;DHT22;13191;47.472;11.214;2023-11-21T09:56:17;8.50;99.90
25248;DHT22;13191;47.472;11.214;2023-11-21T09:58:51;8.50;99.90
25248;DHT22;13191;47.472;11.214;2023-11-21T10:01:18;8.60;99.90
25248;DHT22;13191;47.472;11.214;2023-11-21T10:03:44;8.60;99.90
25248;DHT22;13191;47.472;11.214;2023-11-21T10:06:12;8.60;99.90
25248;DHT22;13191;47.472;11.214;2023-11-21T10:08:40;8.60;99.90
25248;DHT22;13191;47.472;11.214;2023-11-21T10:11:07;8.60;99.90
25248;DHT22;13191;47.472;11.214;2023-11-21T10:13:37;8.60;99.90
25248;DHT22;13191;47.472;11.214;2023-11-21T10:16:04;8.60;99.90
25248;DHT22;13191;47.472;11.214;2023-11-21T10:18:32;8.70;99.90
25248;DHT22;13191;47.472;11.214;2023-11-21T10:20:59;8.70;99.90
25248;DHT22;13191;47.472;11.214;2023-11-21T10:23:26;8.70;99.90
25248;DHT22;13191;47.472;11.214;2023-11-21T10:25:52;8.70;99.90
25248;DHT22;13191;47.472;11.214;2023-11-21T10:28:18;8.70;99.90
25248;DHT22;13191;47.472;11.214;2023-11-21T10:30:44;8.70;99.90
25248;DHT22;13191;47.472;11.214;2023-11-21T10:33:10;8.70;99.90
25248;DHT22;13191;47.472;11.214;2023-11-21T10:35:54;8.70;99.90
25248;DHT22;13191;47.472;11.214;2023-11-21T10:38:21;8.80;99.90
25248;DHT22;13191;47.472;11.214;2023-11-21T10:40:49;8.80;99.90
25248;DHT22;13191;47.472;11.214;2023-11-21T10:43:15;8.80;99.90
25248;DHT22;13191;47.472;11.214;2023-11-21T10:45:41;8.80;99.90
25248;DHT22;13191;47.472;11.214;2023-11-21T10:48:13;8.80;99.90
25248;DHT22;13191;47.472;11.214;2023-11-21T10:50:44;8.80;99.90
25248;DHT22;13191;47.472;11.214;2023-11-21T10:53:09;8.80;99.90
25248;DHT22;13191;47.472;11.214;2023-11-21T10:55:37;8.80;99.90
25248;DHT22;13191;47.472;11.214;2023-11-21T10:58:03;8.80;99.90
25248;DHT22;13191;47.472;11.214;2023-11-21T11:00:31;8.90;99.90
25248;DHT22;13191;47.472;11.214;2023-11-21T11:02:57;8.90;99.90
25248;DHT22;13191;47.472;11.214;2023-11-21T11:05:29;8.90;99.90
25248;DHT22;13191;47.472;11.214;2023-11-21T11:08:15;8.90;99.90
25248;DHT22;13191;47.472;11.214;2023-11-21T11:10:50;8.90;99.90
25248;DHT22;13191;47.472;11.214;2023-11-21T11:13:16;8.90;99.90
25248;DHT22;13191;47.472;11.214;2023-11-21T11:15:42;8.90;99.90
25248;DHT22;13191;47.472;11.214;2023-11-21T11:18:08;8.90;99.90
25248;DHT22;13191;47.472;11.214;2023-11-21T11:20:36;8.90;99.90
25248;DHT22;13191;47.472;11.214;2023-11-21T11:26:45;8.90;99.90
25248;DHT22;13191;47.472;11.214;2023-11-21T11:34:53;8.90;99.90
25248;DHT22;13191;47.472;11.214;2023-11-21T11:37:06;8.90;99.90
25248;DHT22;13191;47.472;11.214;2023-11-21T11:39:38;8.90;99.90
25248;DHT22;13191;47.472;11.214;2023-11-21T11:42:11;8.80;99.90
25248;DHT22;13191;47.472;11.214;2023-11-21T11:47:24;8.90;99.90
25248;DHT22;13191;47.472;11.214;2023-11-21T11:50:04;8.90;99.90
25248;DHT22;13191;47.472;11.214;2023-11-21T11:52:53;8.90;99.90
25248;DHT22;13191;47.472;11.214;2023-11-21T11:55:21;8.90;99.90
25248;DHT22;13191;47.472;11.214;2023-11-21T11:57:58;9.00;99.90
25248;DHT22;13191;47.472;11.214;2023-11-21T12:02:56;9.00;99.90
25248;DHT22;13191;47.472;11.214;2023-11-21T12:05:27;9.10;99.90
25248;DHT22;13191;47.472;11.214;2023-11-21T12:07:57;9.10;99.90
25248;DHT22;13191;47.472;11.214;2023-11-21T12:10:25;9.10;99.90
25248;DHT22;13191;47.472;11.214;2023-11-21T12:13:00;9.20;99.90
25248;DHT22;13191;47.472;11.214;2023-11-21T12:15:27;9.30;99.90
25248;DHT22;13191;47.472;11.214;2023-11-21T12:17:57;9.30;99.90
25248;DHT22;13191;47.472;11.214;2023-11-21T12:20:25;9.30;99.90
25248;DHT22;13191;47.472;11.214;2023-11-21T12:22:53;9.30;99.90
25248;DHT22;13191;47.472;11.214;2023-11-21T12:25:22;9.30;99.90
25248;DHT22;13191;47.472;11.214;2023-11-21T12:27:52;9.40;99.90
25248;DHT22;13191;47.472;11.214;2023-11-21T12:30:23;9.40;99.90
25248;DHT22;13191;47.472;11.214;2023-11-21T12:32:53;9.40;99.90
25248;DHT22;13191;47.472;11.214;2023-11-21T12:35:26;9.50;99.90
25248;DHT22;13191;47.472;11.214;2023-11-21T12:37:53;9.50;99.90
25248;DHT22;13191;47.472;11.214;2023-11-21T12:40:19;9.50;99.90
25248;DHT22;13191;47.472;11.214;2023-11-21T12:42:55;9.60;99.90
25248;DHT22;13191;47.472;11.214;2023-11-21T12:45:23;9.60;99.90
25248;DHT22;13191;47.472;11.214;2023-11-21T12:47:52;9.60;99.90
25248;DHT22;13191;47.472;11.214;2023-11-21T12:50:22;9.60;99.90
25248;DHT22;13191;47.472;11.214;2023-11-21T12:52:58;9.70;99.90
25248;DHT22;13191;47.472;11.214;2023-11-21T12:55:24;9.70;99.90
25248;DHT22;13191;47.472;11.214;2023-11-21T12:57:55;9.60;99.90
25248;DHT22;13191;47.472;11.214;2023-11-21T13:00:45;9.70;99.90
25248;DHT22;13191;47.472;11.214;2023-11-21T13:03:13;9.70;99.90
25248;DHT22;13191;47.472;11.214;2023-11-21T13:05:43;9.70;99.90
25248;DHT22;13191;47.472;11.214;2023-11-21T13:08:13;9.70;99.90
25248;DHT22;13191;47.472;11.214;2023-11-21T13:10:40;9.70;99.90
25248;DHT22;13191;47.472;11.214;2023-11-21T13:13:09;9.70;99.90
25248;DHT22;13191;47.472;11.214;2023-11-21T13:15:46;9.70;99.90
25248;DHT22;13191;47.472;11.214;2023-11-21T13:18:12;9.70;99.90
25248;DHT22;13191;47.472;11.214;2023-11-21T13:20:38;9.70;99.90
25248;DHT22;13191;47.472;11.214;2023-11-21T13:23:08;9.70;99.90
25248;DHT22;13191;47.472;11.214;2023-11-21T13:25:34;9.60;99.90
25248;DHT22;13191;47.472;11.214;2023-11-21T13:28:00;9.60;99.90
25248;DHT22;13191;47.472;11.214;2023-11-21T13:30:27;9.60;99.90
25248;DHT22;13191;47.472;11.214;2023-11-21T13:35:27;9.60;99.90
25248;DHT22;13191;47.472;11.214;2023-11-21T13:38:12;9.60;99.90
25248;DHT22;13191;47.472;11.214;2023-11-21T13:40:40;9.60;99.90
25248;DHT22;13191;47.472;11.214;2023-11-21T13:43:13;9.60;99.90
25248;DHT22;13191;47.472;11.214;2023-11-21T13:45:39;9.50;99.90
25248;DHT22;13191;47.472;11.214;2023-11-21T13:48:06;9.40;99.90
25248;DHT22;13191;47.472;11.214;2023-11-21T13:50:39;9.10;99.90
25248;DHT22;13191;47.472;11.214;2023-11-21T13:53:10;9.20;99.90
25248;DHT22;13191;47.472;11.214;2023-11-21T13:55:49;9.20;99.90
25248;DHT22;13191;47.472;11.214;2023-11-21T13:58:16;9.20;99.90
25248;DHT22;13191;47.472;11.214;2023-11-21T14:00:45;9.20;99.90
25248;DHT22;13191;47.472;11.214;2023-11-21T14:03:12;9.10;99.90
25248;DHT22;13191;47.472;11.214;2023-11-21T14:05:50;9.20;99.90
25248;DHT22;13191;47.472;11.214;2023-11-21T14:08:21;9.10;99.90
25248;DHT22;13191;47.472;11.214;2023-11-21T14:10:48;9.10;99.90
25248;DHT22;13191;47.472;11.214;2023-11-21T14:13:21;9.10;99.90
25248;DHT22;13191;47.472;11.214;2023-11-21T14:15:49;9.10;99.90
25248;DHT22;13191;47.472;11.214;2023-11-21T14:18:17;9.00;99.90
25248;DHT22;13191;47.472;11.214;2023-11-21T14:20:51;9.00;99.90
25248;DHT22;13191;47.472;11.214;2023-11-21T14:23:17;9.00;99.90
25248;DHT22;13191;47.472;11.214;2023-11-21T14:25:43;9.00;99.90
25248;DHT22;13191;47.472;11.214;2023-11-21T14:28:09;9.00;99.90
25248;DHT22;13191;47.472;11.214;2023-11-21T14:30:37;9.00;99.90
25248;DHT22;13191;47.472;11.214;2023-11-21T14:33:05;9.00;99.90
25248;DHT22;13191;47.472;11.214;2023-11-21T14:35:31;9.00;99.90
25248;DHT22;13191;47.472;11.214;2023-11-21T14:37:58;8.90;99.90
25248;DHT22;13191;47.472;11.214;2023-11-21T14:40:25;9.00;99.90
25248;DHT22;13191;47.472;11.214;2023-11-21T14:42:51;9.00;99.90
25248;DHT22;13191;47.472;11.214;2023-11-21T14:45:21;9.00;99.90
25248;DHT22;13191;47.472;11.214;2023-11-21T14:47:48;9.00;99.90
25248;DHT22;13191;47.472;11.214;2023-11-21T14:50:34;8.90;99.90
25248;DHT22;13191;47.472;11.214;2023-11-21T14:53:28;8.90;99.90
25248;DHT22;13191;47.472;11.214;2023-11-21T14:56:14;8.80;99.90
25248;DHT22;13191;47.472;11.214;2023-11-21T14:58:48;8.80;99.90
25248;DHT22;13191;47.472;11.214;2023-11-21T15:01:14;8.80;99.90
25248;DHT22;13191;47.472;11.214;2023-11-21T15:03:39;8.80;99.90
25248;DHT22;13191;47.472;11.214;2023-11-21T15:06:15;8.80;99.90
25248;DHT22;13191;47.472;11.214;2023-11-21T15:08:56;8.70;99.90
25248;DHT22;13191;47.472;11.214;2023-11-21T15:11:35;8.70;99.90
25248;DHT22;13191;47.472;11.214;2023-11-21T15:14:04;8.60;99.90
25248;DHT22;13191;47.472;11.214;2023-11-21T15:16:33;8.50;99.90
25248;DHT22;13191;47.472;11.214;2023-11-21T15:18:58;8.60;99.90
25248;DHT22;13191;47.472;11.214;2023-11-21T15:21:24;8.60;99.90
25248;DHT22;13191;47.472;11.214;2023-11-21T15:23:50;8.60;99.90
25248;DHT22;13191;47.472;11.214;2023-11-21T15:26:16;8.50;99.90
25248;DHT22;13191;47.472;11.214;2023-11-21T15:28:42;8.30;99.90
25248;DHT22;13191;47.472;11.214;2023-11-21T15:31:08;8.30;99.90
25248;DHT22;13191;47.472;11.214;2023-11-21T15:33:34;8.30;99.90
25248;DHT22;13191;47.472;11.214;2023-11-21T15:36:02;8.30;99.90
25248;DHT22;13191;47.472;11.214;2023-11-21T15:38:29;8.20;99.90
25248;DHT22;13191;47.472;11.214;2023-11-21T15:40:55;8.30;99.90
25248;DHT22;13191;47.472;11.214;2023-11-21T15:43:20;8.20;99.90
25248;DHT22;13191;47.472;11.214;2023-11-21T15:45:46;8.20;99.90
25248;DHT22;13191;47.472;11.214;2023-11-21T15:48:11;8.20;99.90